sensor_id;sensor_type;location;lat;lon;timestamp;temperature;humidity
16879;DHT22;8556;52.218;9.884;2024-02-14T00:00:32;7.10;61.20
16879;DHT22;8556;52.218;9.884;2024-02-14T00:03:01;7.10;65.90
16879;DHT22;8556;52.218;9.884;2024-02-14T00:05:28;7.20;75.10
16879;DHT22;8556;52.218;9.884;2024-02-14T00:07:55;7.00;99.90
16879;DHT22;8556;52.218;9.884;2024-02-14T00:10:22;7.00;99.90
16879;DHT22;8556;52.218;9.884;2024-02-14T00:12:49;7.00;99.90
16879;DHT22;8556;52.218;9.884;2024-02-14T00:15:16;6.90;99.90
16879;DHT22;8556;52.218;9.884;2024-02-14T00:17:43;7.00;99.90
16879;DHT22;8556;52.218;9.884;2024-02-14T00:20:12;7.20;99.90
16879;DHT22;8556;52.218;9.884;2024-02-14T00:22:38;7.00;99.90
16879;DHT22;8556;52.218;9.884;2024-02-14T00:25:06;6.80;1.00
16879;DHT22;8556;52.218;9.884;2024-02-14T00:27:34;6.80;1.00
16879;DHT22;8556;52.218;9.884;2024-02-14T00:30:01;6.80;1.00
16879;DHT22;8556;52.218;9.884;2024-02-14T00:32:28;6.90;99.90
16879;DHT22;8556;52.218;9.884;2024-02-14T00:34:55;7.00;99.90
16879;DHT22;8556;52.218;9.884;2024-02-14T00:37:23;6.90;1.00
16879;DHT22;8556;52.218;9.884;2024-02-14T00:39:50;6.80;1.00
16879;DHT22;8556;52.218;9.884;2024-02-14T00:42:17;7.00;99.90
16879;DHT22;8556;52.218;9.884;2024-02-14T00:44:44;7.00;99.90
16879;DHT22;8556;52.218;9.884;2024-02-14T00:47:11;7.00;99.90
16879;DHT22;8556;52.218;9.884;2024-02-14T00:49:37;6.90;99.90
16879;DHT22;8556;52.218;9.884;2024-02-14T00:52:05;6.90;1.00
16879;DHT22;8556;52.218;9.884;2024-02-14T00:54:34;7.00;99.90
16879;DHT22;8556;52.218;9.884;2024-02-14T00:57:01;7.00;99.90
16879;DHT22;8556;52.218;9.884;2024-02-14T00:59:28;6.90;99.90
16879;DHT22;8556;52.218;9.884;2024-02-14T01:01:54;6.90;99.90
16879;DHT22;8556;52.218;9.884;2024-02-14T01:04:21;7.00;99.90
16879;DHT22;8556;52.218;9.884;2024-02-14T01:06:48;6.90;99.90
16879;DHT22;8556;52.218;9.884;2024-02-14T01:09:16;7.20;99.90
16879;DHT22;8556;52.218;9.884;2024-02-14T01:11:45;7.00;99.90
16879;DHT22;8556;52.218;9.884;2024-02-14T01:14:12;7.10;67.00
16879;DHT22;8556;52.218;9.884;2024-02-14T01:16:42;7.00;85.20
16879;DHT22;8556;52.218;9.884;2024-02-14T01:19:09;7.00;99.90
16879;DHT22;8556;52.218;9.884;2024-02-14T01:21:36;7.00;99.90
16879;DHT22;8556;52.218;9.884;2024-02-14T01:24:03;7.00;99.90
16879;DHT22;8556;52.218;9.884;2024-02-14T01:26:33;7.00;99.90
16879;DHT22;8556;52.218;9.884;2024-02-14T01:29:01;7.00;99.90
16879;DHT22;8556;52.218;9.884;2024-02-14T01:31:28;7.00;99.90
16879;DHT22;8556;52.218;9.884;2024-02-14T01:33:56;7.00;99.90
16879;DHT22;8556;52.218;9.884;2024-02-14T01:36:24;7.10;99.90
16879;DHT22;8556;52.218;9.884;2024-02-14T01:38:51;7.10;99.90
16879;DHT22;8556;52.218;9.884;2024-02-14T01:41:18;7.10;99.90
16879;DHT22;8556;52.218;9.884;2024-02-14T01:43:46;7.20;76.90
16879;DHT22;8556;52.218;9.884;2024-02-14T01:46:14;7.20;99.90
16879;DHT22;8556;52.218;9.884;2024-02-14T01:48:42;7.10;99.90
16879;DHT22;8556;52.218;9.884;2024-02-14T01:51:11;7.30;83.10
16879;DHT22;8556;52.218;9.884;2024-02-14T01:53:40;7.30;96.50
16879;DHT22;8556;52.218;9.884;2024-02-14T01:56:08;7.20;99.90
16879;DHT22;8556;52.218;9.884;2024-02-14T01:58:35;7.20;99.90
16879;DHT22;8556;52.218;9.884;2024-02-14T02:01:03;7.30;99.90
16879;DHT22;8556;52.218;9.884;2024-02-14T02:03:31;7.40;1.00
16879;DHT22;8556;52.218;9.884;2024-02-14T02:06:02;7.50;54.30
16879;DHT22;8556;52.218;9.884;2024-02-14T02:08:29;7.40;48.30
16879;DHT22;8556;52.218;9.884;2024-02-14T02:10:56;7.50;1.00
16879;DHT22;8556;52.218;9.884;2024-02-14T02:13:22;7.50;1.00
16879;DHT22;8556;52.218;9.884;2024-02-14T02:15:51;7.50;1.00
16879;DHT22;8556;52.218;9.884;2024-02-14T02:18:18;7.60;1.00
16879;DHT22;8556;52.218;9.884;2024-02-14T02:20:47;7.70;1.00
16879;DHT22;8556;52.218;9.884;2024-02-14T02:23:15;7.60;1.00
16879;DHT22;8556;52.218;9.884;2024-02-14T02:25:42;7.60;1.00
16879;DHT22;8556;52.218;9.884;2024-02-14T02:28:10;7.70;1.00
16879;DHT22;8556;52.218;9.884;2024-02-14T02:30:37;7.60;1.00
16879;DHT22;8556;52.218;9.884;2024-02-14T02:33:04;7.60;1.00
16879;DHT22;8556;52.218;9.884;2024-02-14T02:35:33;7.70;1.00
16879;DHT22;8556;52.218;9.884;2024-02-14T02:37:59;7.70;1.00
16879;DHT22;8556;52.218;9.884;2024-02-14T02:40:28;7.70;1.00
16879;DHT22;8556;52.218;9.884;2024-02-14T02:42:54;7.80;1.00
16879;DHT22;8556;52.218;9.884;2024-02-14T02:45:21;7.70;1.00
16879;DHT22;8556;52.218;9.884;2024-02-14T02:47:49;7.80;1.00
16879;DHT22;8556;52.218;9.884;2024-02-14T02:50:16;7.70;1.00
16879;DHT22;8556;52.218;9.884;2024-02-14T02:52:43;7.70;1.00
16879;DHT22;8556;52.218;9.884;2024-02-14T02:55:10;7.60;2.30
16879;DHT22;8556;52.218;9.884;2024-02-14T02:57:40;7.70;99.90
16879;DHT22;8556;52.218;9.884;2024-02-14T03:00:08;7.60;99.90
16879;DHT22;8556;52.218;9.884;2024-02-14T03:02:35;7.60;99.90
16879;DHT22;8556;52.218;9.884;2024-02-14T03:05:04;7.60;99.90
16879;DHT22;8556;52.218;9.884;2024-02-14T03:07:35;7.60;99.90
16879;DHT22;8556;52.218;9.884;2024-02-14T03:10:03;7.60;99.90
16879;DHT22;8556;52.218;9.884;2024-02-14T03:12:30;7.60;1.00
16879;DHT22;8556;52.218;9.884;2024-02-14T03:14:59;7.60;99.90
16879;DHT22;8556;52.218;9.884;2024-02-14T03:17:26;7.60;1.00
16879;DHT22;8556;52.218;9.884;2024-02-14T03:19:54;7.60;1.00
16879;DHT22;8556;52.218;9.884;2024-02-14T03:22:22;7.50;1.00
16879;DHT22;8556;52.218;9.884;2024-02-14T03:24:48;7.60;1.00
16879;DHT22;8556;52.218;9.884;2024-02-14T03:27:15;7.50;1.00
16879;DHT22;8556;52.218;9.884;2024-02-14T03:29:44;7.40;1.00
16879;DHT22;8556;52.218;9.884;2024-02-14T03:32:14;7.40;40.70
16879;DHT22;8556;52.218;9.884;2024-02-14T03:34:41;7.40;1.00
16879;DHT22;8556;52.218;9.884;2024-02-14T03:37:07;7.50;1.00
16879;DHT22;8556;52.218;9.884;2024-02-14T03:39:34;7.50;1.00
16879;DHT22;8556;52.218;9.884;2024-02-14T03:42:02;7.60;1.00
16879;DHT22;8556;52.218;9.884;2024-02-14T03:44:32;7.50;1.00
16879;DHT22;8556;52.218;9.884;2024-02-14T03:46:59;7.60;1.00
16879;DHT22;8556;52.218;9.884;2024-02-14T03:49:27;7.60;1.00
16879;DHT22;8556;52.218;9.884;2024-02-14T03:51:55;7.60;1.00
16879;DHT22;8556;52.218;9.884;2024-02-14T03:54:22;7.90;1.00
16879;DHT22;8556;52.218;9.884;2024-02-14T03:56:49;7.60;89.90
16879;DHT22;8556;52.218;9.884;2024-02-14T03:59:17;7.60;1.10
16879;DHT22;8556;52.218;9.884;2024-02-14T04:01:49;7.70;99.90
16879;DHT22;8556;52.218;9.884;2024-02-14T04:04:18;7.50;99.90
16879;DHT22;8556;52.218;9.884;2024-02-14T04:06:46;7.60;99.90
16879;DHT22;8556;52.218;9.884;2024-02-14T04:09:13;7.60;99.90
16879;DHT22;8556;52.218;9.884;2024-02-14T04:11:40;7.60;99.90
16879;DHT22;8556;52.218;9.884;2024-02-14T04:14:07;7.70;99.90
16879;DHT22;8556;52.218;9.884;2024-02-14T04:16:34;7.70;99.90
16879;DHT22;8556;52.218;9.884;2024-02-14T04:19:02;7.60;1.00
16879;DHT22;8556;52.218;9.884;2024-02-14T04:21:29;7.60;1.00
16879;DHT22;8556;52.218;9.884;2024-02-14T04:23:57;7.70;1.00
16879;DHT22;8556;52.218;9.884;2024-02-14T04:26:24;7.70;1.00
16879;DHT22;8556;52.218;9.884;2024-02-14T04:28:52;7.70;1.00
16879;DHT22;8556;52.218;9.884;2024-02-14T04:31:19;7.70;1.00
16879;DHT22;8556;52.218;9.884;2024-02-14T04:33:45;7.80;1.00
16879;DHT22;8556;52.218;9.884;2024-02-14T04:36:17;7.70;1.00
16879;DHT22;8556;52.218;9.884;2024-02-14T04:38:44;7.70;99.90
16879;DHT22;8556;52.218;9.884;2024-02-14T04:41:12;7.70;99.90
16879;DHT22;8556;52.218;9.884;2024-02-14T04:43:39;7.60;1.00
16879;DHT22;8556;52.218;9.884;2024-02-14T04:46:07;7.60;1.00
16879;DHT22;8556;52.218;9.884;2024-02-14T04:48:34;7.60;99.90
16879;DHT22;8556;52.218;9.884;2024-02-14T04:51:01;7.50;1.00
16879;DHT22;8556;52.218;9.884;2024-02-14T04:53:28;7.50;1.00
16879;DHT22;8556;52.218;9.884;2024-02-14T04:55:55;7.60;99.90
16879;DHT22;8556;52.218;9.884;2024-02-14T04:58:23;7.50;1.00
16879;DHT22;8556;52.218;9.884;2024-02-14T05:00:52;7.50;99.90
16879;DHT22;8556;52.218;9.884;2024-02-14T05:03:20;7.40;1.00
16879;DHT22;8556;52.218;9.884;2024-02-14T05:05:49;7.40;1.00
16879;DHT22;8556;52.218;9.884;2024-02-14T05:08:16;7.50;1.00
16879;DHT22;8556;52.218;9.884;2024-02-14T05:10:43;7.30;1.00
16879;DHT22;8556;52.218;9.884;2024-02-14T05:13:11;7.30;1.00
16879;DHT22;8556;52.218;9.884;2024-02-14T05:15:39;7.30;1.00
16879;DHT22;8556;52.218;9.884;2024-02-14T05:18:07;7.30;1.00
16879;DHT22;8556;52.218;9.884;2024-02-14T05:20:34;7.30;1.00
16879;DHT22;8556;52.218;9.884;2024-02-14T05:23:01;7.30;1.00
16879;DHT22;8556;52.218;9.884;2024-02-14T05:25:28;7.30;1.00
16879;DHT22;8556;52.218;9.884;2024-02-14T05:27:58;7.30;99.90
16879;DHT22;8556;52.218;9.884;2024-02-14T05:30:26;7.30;99.90
16879;DHT22;8556;52.218;9.884;2024-02-14T05:32:54;7.30;79.50
16879;DHT22;8556;52.218;9.884;2024-02-14T05:35:22;7.30;1.00
16879;DHT22;8556;52.218;9.884;2024-02-14T05:37:49;7.40;1.00
16879;DHT22;8556;52.218;9.884;2024-02-14T05:40:16;7.30;1.00
16879;DHT22;8556;52.218;9.884;2024-02-14T05:42:43;7.40;1.00
16879;DHT22;8556;52.218;9.884;2024-02-14T05:45:10;7.50;1.00
16879;DHT22;8556;52.218;9.884;2024-02-14T05:47:37;7.50;1.00
16879;DHT22;8556;52.218;9.884;2024-02-14T05:50:07;7.60;1.00
16879;DHT22;8556;52.218;9.884;2024-02-14T05:52:37;7.40;1.00
16879;DHT22;8556;52.218;9.884;2024-02-14T05:55:04;7.50;1.00
16879;DHT22;8556;52.218;9.884;2024-02-14T05:57:31;7.50;1.00
16879;DHT22;8556;52.218;9.884;2024-02-14T05:59:58;7.50;1.00
16879;DHT22;8556;52.218;9.884;2024-02-14T06:02:25;7.40;99.90
16879;DHT22;8556;52.218;9.884;2024-02-14T06:04:52;7.50;99.90
16879;DHT22;8556;52.218;9.884;2024-02-14T06:07:20;7.60;99.90
16879;DHT22;8556;52.218;9.884;2024-02-14T06:09:46;7.60;1.00
16879;DHT22;8556;52.218;9.884;2024-02-14T06:12:13;7.60;71.70
16879;DHT22;8556;52.218;9.884;2024-02-14T06:14:40;7.60;99.90
16879;DHT22;8556;52.218;9.884;2024-02-14T06:17:07;7.70;99.90
16879;DHT22;8556;52.218;9.884;2024-02-14T06:19:33;7.70;99.90
16879;DHT22;8556;52.218;9.884;2024-02-14T06:22:01;7.60;99.90
16879;DHT22;8556;52.218;9.884;2024-02-14T06:24:29;7.60;99.90
16879;DHT22;8556;52.218;9.884;2024-02-14T06:26:56;7.60;99.90
16879;DHT22;8556;52.218;9.884;2024-02-14T06:29:23;7.70;99.90
16879;DHT22;8556;52.218;9.884;2024-02-14T06:31:50;7.70;99.90
16879;DHT22;8556;52.218;9.884;2024-02-14T06:34:16;7.70;99.90
16879;DHT22;8556;52.218;9.884;2024-02-14T06:36:45;7.70;99.90
16879;DHT22;8556;52.218;9.884;2024-02-14T06:39:12;7.90;99.90
16879;DHT22;8556;52.218;9.884;2024-02-14T06:41:40;7.70;99.90
16879;DHT22;8556;52.218;9.884;2024-02-14T06:44:09;7.70;99.90
16879;DHT22;8556;52.218;9.884;2024-02-14T06:46:36;7.80;99.90
16879;DHT22;8556;52.218;9.884;2024-02-14T06:49:03;7.80;99.90
16879;DHT22;8556;52.218;9.884;2024-02-14T06:51:30;7.80;99.90
16879;DHT22;8556;52.218;9.884;2024-02-14T06:53:57;7.70;99.90
16879;DHT22;8556;52.218;9.884;2024-02-14T06:56:23;7.70;99.90
16879;DHT22;8556;52.218;9.884;2024-02-14T06:58:51;7.70;99.90
16879;DHT22;8556;52.218;9.884;2024-02-14T07:01:25;7.70;99.90
16879;DHT22;8556;52.218;9.884;2024-02-14T07:03:52;7.70;99.90
16879;DHT22;8556;52.218;9.884;2024-02-14T07:06:19;7.70;99.90
16879;DHT22;8556;52.218;9.884;2024-02-14T07:08:46;7.70;99.90
16879;DHT22;8556;52.218;9.884;2024-02-14T07:11:14;7.70;99.90
16879;DHT22;8556;52.218;9.884;2024-02-14T07:13:42;7.80;99.90
16879;DHT22;8556;52.218;9.884;2024-02-14T07:16:10;7.80;99.90
16879;DHT22;8556;52.218;9.884;2024-02-14T07:18:37;7.90;99.90
16879;DHT22;8556;52.218;9.884;2024-02-14T07:21:04;7.90;99.90
16879;DHT22;8556;52.218;9.884;2024-02-14T07:23:31;7.90;99.90
16879;DHT22;8556;52.218;9.884;2024-02-14T07:25:58;7.90;99.90
16879;DHT22;8556;52.218;9.884;2024-02-14T07:28:26;7.90;99.90
16879;DHT22;8556;52.218;9.884;2024-02-14T07:30:53;7.90;99.90
16879;DHT22;8556;52.218;9.884;2024-02-14T07:33:21;7.90;99.90
16879;DHT22;8556;52.218;9.884;2024-02-14T07:35:49;7.80;99.90
16879;DHT22;8556;52.218;9.884;2024-02-14T07:38:16;7.80;99.90
16879;DHT22;8556;52.218;9.884;2024-02-14T07:40:43;7.90;99.90
16879;DHT22;8556;52.218;9.884;2024-02-14T07:43:10;7.90;99.90
16879;DHT22;8556;52.218;9.884;2024-02-14T07:45:37;7.90;99.90
16879;DHT22;8556;52.218;9.884;2024-02-14T07:48:05;7.90;99.90
16879;DHT22;8556;52.218;9.884;2024-02-14T07:50:33;7.90;99.90
16879;DHT22;8556;52.218;9.884;2024-02-14T07:53:00;7.90;99.90
16879;DHT22;8556;52.218;9.884;2024-02-14T07:55:27;7.90;99.90
16879;DHT22;8556;52.218;9.884;2024-02-14T07:57:54;7.90;99.90
16879;DHT22;8556;52.218;9.884;2024-02-14T08:00:21;8.00;99.90
16879;DHT22;8556;52.218;9.884;2024-02-14T08:02:49;7.80;99.90
16879;DHT22;8556;52.218;9.884;2024-02-14T08:05:16;7.70;99.90
16879;DHT22;8556;52.218;9.884;2024-02-14T08:07:45;7.60;99.90
16879;DHT22;8556;52.218;9.884;2024-02-14T08:10:12;7.60;99.90
16879;DHT22;8556;52.218;9.884;2024-02-14T08:12:39;7.60;99.90
16879;DHT22;8556;52.218;9.884;2024-02-14T08:15:06;7.50;99.90
16879;DHT22;8556;52.218;9.884;2024-02-14T08:17:33;7.60;99.90
16879;DHT22;8556;52.218;9.884;2024-02-14T08:20:01;7.60;99.90
16879;DHT22;8556;52.218;9.884;2024-02-14T08:22:29;7.60;99.90
16879;DHT22;8556;52.218;9.884;2024-02-14T08:24:58;7.70;99.90
16879;DHT22;8556;52.218;9.884;2024-02-14T08:27:24;7.80;99.90
16879;DHT22;8556;52.218;9.884;2024-02-14T08:29:53;7.80;99.90
16879;DHT22;8556;52.218;9.884;2024-02-14T08:32:20;7.80;99.90
16879;DHT22;8556;52.218;9.884;2024-02-14T08:34:48;7.80;99.90
16879;DHT22;8556;52.218;9.884;2024-02-14T08:37:15;7.80;99.90
16879;DHT22;8556;52.218;9.884;2024-02-14T08:39:42;7.80;99.90
16879;DHT22;8556;52.218;9.884;2024-02-14T08:42:10;7.90;99.90
16879;DHT22;8556;52.218;9.884;2024-02-14T08:44:37;7.90;99.90
16879;DHT22;8556;52.218;9.884;2024-02-14T08:47:04;7.90;99.90
16879;DHT22;8556;52.218;9.884;2024-02-14T08:49:31;7.90;99.90
16879;DHT22;8556;52.218;9.884;2024-02-14T08:51:58;7.80;99.90
16879;DHT22;8556;52.218;9.884;2024-02-14T08:54:24;7.90;99.90
16879;DHT22;8556;52.218;9.884;2024-02-14T08:56:53;7.80;99.90
16879;DHT22;8556;52.218;9.884;2024-02-14T08:59:25;7.80;99.90
16879;DHT22;8556;52.218;9.884;2024-02-14T09:01:52;7.80;99.90
16879;DHT22;8556;52.218;9.884;2024-02-14T09:04:19;7.80;99.90
16879;DHT22;8556;52.218;9.884;2024-02-14T09:06:45;7.90;99.90
16879;DHT22;8556;52.218;9.884;2024-02-14T09:09:12;8.00;99.90
16879;DHT22;8556;52.218;9.884;2024-02-14T09:11:39;8.00;99.90
16879;DHT22;8556;52.218;9.884;2024-02-14T09:14:06;8.00;99.90
16879;DHT22;8556;52.218;9.884;2024-02-14T09:16:34;8.00;99.90
16879;DHT22;8556;52.218;9.884;2024-02-14T09:19:01;8.10;99.90
16879;DHT22;8556;52.218;9.884;2024-02-14T09:21:28;8.10;99.90
16879;DHT22;8556;52.218;9.884;2024-02-14T09:23:56;8.20;99.90
16879;DHT22;8556;52.218;9.884;2024-02-14T09:26:23;8.20;99.90
16879;DHT22;8556;52.218;9.884;2024-02-14T09:28:50;8.30;99.90
16879;DHT22;8556;52.218;9.884;2024-02-14T09:31:20;8.50;99.90
16879;DHT22;8556;52.218;9.884;2024-02-14T09:33:48;8.50;99.90
16879;DHT22;8556;52.218;9.884;2024-02-14T09:36:15;8.60;99.90
16879;DHT22;8556;52.218;9.884;2024-02-14T09:38:42;8.60;99.90
16879;DHT22;8556;52.218;9.884;2024-02-14T09:41:15;8.60;99.90
16879;DHT22;8556;52.218;9.884;2024-02-14T09:43:44;8.70;99.90
16879;DHT22;8556;52.218;9.884;2024-02-14T09:46:12;9.10;99.90
16879;DHT22;8556;52.218;9.884;2024-02-14T09:48:41;8.90;99.90
16879;DHT22;8556;52.218;9.884;2024-02-14T09:51:11;9.00;99.90
16879;DHT22;8556;52.218;9.884;2024-02-14T09:53:38;9.00;99.90
16879;DHT22;8556;52.218;9.884;2024-02-14T09:56:06;9.20;99.90
16879;DHT22;8556;52.218;9.884;2024-02-14T09:58:35;9.10;99.90
16879;DHT22;8556;52.218;9.884;2024-02-14T10:01:04;9.10;99.90
16879;DHT22;8556;52.218;9.884;2024-02-14T10:03:33;9.10;99.90
16879;DHT22;8556;52.218;9.884;2024-02-14T10:06:00;9.20;99.90
16879;DHT22;8556;52.218;9.884;2024-02-14T10:08:29;9.20;99.90
16879;DHT22;8556;52.218;9.884;2024-02-14T10:10:56;9.30;99.90
16879;DHT22;8556;52.218;9.884;2024-02-14T10:13:26;9.40;99.90
16879;DHT22;8556;52.218;9.884;2024-02-14T10:15:53;9.50;99.90
16879;DHT22;8556;52.218;9.884;2024-02-14T10:18:21;9.50;99.90
16879;DHT22;8556;52.218;9.884;2024-02-14T10:20:55;9.50;99.90
16879;DHT22;8556;52.218;9.884;2024-02-14T10:23:22;9.60;99.90
16879;DHT22;8556;52.218;9.884;2024-02-14T10:25:52;9.70;99.90
16879;DHT22;8556;52.218;9.884;2024-02-14T10:28:20;9.60;99.90
16879;DHT22;8556;52.218;9.884;2024-02-14T10:30:48;9.60;99.90
16879;DHT22;8556;52.218;9.884;2024-02-14T10:33:16;9.50;99.90
16879;DHT22;8556;52.218;9.884;2024-02-14T10:35:43;9.60;99.90
16879;DHT22;8556;52.218;9.884;2024-02-14T10:38:11;9.60;99.90
16879;DHT22;8556;52.218;9.884;2024-02-14T10:40:38;9.70;99.90
16879;DHT22;8556;52.218;9.884;2024-02-14T10:43:07;9.60;99.90
16879;DHT22;8556;52.218;9.884;2024-02-14T10:45:35;9.70;99.90
16879;DHT22;8556;52.218;9.884;2024-02-14T10:48:04;9.70;99.90
16879;DHT22;8556;52.218;9.884;2024-02-14T10:50:33;9.70;99.90
16879;DHT22;8556;52.218;9.884;2024-02-14T10:53:04;9.80;99.90
16879;DHT22;8556;52.218;9.884;2024-02-14T10:55:33;9.90;99.90
16879;DHT22;8556;52.218;9.884;2024-02-14T10:58:01;9.90;99.90
16879;DHT22;8556;52.218;9.884;2024-02-14T11:00:30;10.00;99.90
16879;DHT22;8556;52.218;9.884;2024-02-14T11:02:58;10.00;99.90
16879;DHT22;8556;52.218;9.884;2024-02-14T11:05:26;10.10;99.90
16879;DHT22;8556;52.218;9.884;2024-02-14T11:07:53;10.10;99.90
16879;DHT22;8556;52.218;9.884;2024-02-14T11:10:21;10.10;99.90
16879;DHT22;8556;52.218;9.884;2024-02-14T11:12:49;10.10;99.90
16879;DHT22;8556;52.218;9.884;2024-02-14T11:15:18;10.10;99.90
16879;DHT22;8556;52.218;9.884;2024-02-14T11:17:47;10.10;99.90
16879;DHT22;8556;52.218;9.884;2024-02-14T11:20:18;10.20;99.90
16879;DHT22;8556;52.218;9.884;2024-02-14T11:22:55;10.20;99.90
16879;DHT22;8556;52.218;9.884;2024-02-14T11:25:23;10.20;99.90
16879;DHT22;8556;52.218;9.884;2024-02-14T11:27:55;10.20;99.90
16879;DHT22;8556;52.218;9.884;2024-02-14T11:30:33;10.20;99.90
16879;DHT22;8556;52.218;9.884;2024-02-14T11:33:18;10.20;99.90
16879;DHT22;8556;52.218;9.884;2024-02-14T11:35:46;10.20;99.90
16879;DHT22;8556;52.218;9.884;2024-02-14T11:38:15;10.20;99.90
16879;DHT22;8556;52.218;9.884;2024-02-14T11:40:42;10.30;99.90
16879;DHT22;8556;52.218;9.884;2024-02-14T11:43:12;10.30;99.90
16879;DHT22;8556;52.218;9.884;2024-02-14T11:45:41;10.50;99.90
16879;DHT22;8556;52.218;9.884;2024-02-14T11:48:09;10.50;99.90
16879;DHT22;8556;52.218;9.884;2024-02-14T11:50:38;10.60;99.90
16879;DHT22;8556;52.218;9.884;2024-02-14T11:53:06;10.60;99.90
16879;DHT22;8556;52.218;9.884;2024-02-14T11:55:34;10.60;99.90
16879;DHT22;8556;52.218;9.884;2024-02-14T11:58:03;10.50;99.90
16879;DHT22;8556;52.218;9.884;2024-02-14T12:00:30;10.50;99.90
16879;DHT22;8556;52.218;9.884;2024-02-14T12:02:56;10.50;99.90
16879;DHT22;8556;52.218;9.884;2024-02-14T12:05:24;10.50;99.90
16879;DHT22;8556;52.218;9.884;2024-02-14T12:07:52;10.50;99.90
16879;DHT22;8556;52.218;9.884;2024-02-14T12:10:20;10.70;99.90
16879;DHT22;8556;52.218;9.884;2024-02-14T12:12:47;10.50;99.90
16879;DHT22;8556;52.218;9.884;2024-02-14T12:15:14;10.50;99.90
16879;DHT22;8556;52.218;9.884;2024-02-14T12:17:41;10.50;99.90
16879;DHT22;8556;52.218;9.884;2024-02-14T12:20:09;10.50;99.90
16879;DHT22;8556;52.218;9.884;2024-02-14T12:22:37;10.50;99.90
16879;DHT22;8556;52.218;9.884;2024-02-14T12:25:06;10.50;99.90
16879;DHT22;8556;52.218;9.884;2024-02-14T12:27:33;10.50;99.90
16879;DHT22;8556;52.218;9.884;2024-02-14T12:30:03;10.50;99.90
16879;DHT22;8556;52.218;9.884;2024-02-14T12:32:30;10.60;99.90
16879;DHT22;8556;52.218;9.884;2024-02-14T12:34:56;10.60;99.90
16879;DHT22;8556;52.218;9.884;2024-02-14T12:37:23;10.60;99.90
16879;DHT22;8556;52.218;9.884;2024-02-14T12:39:50;10.60;99.90
16879;DHT22;8556;52.218;9.884;2024-02-14T12:42:18;10.90;99.90
16879;DHT22;8556;52.218;9.884;2024-02-14T12:44:50;10.60;99.90
16879;DHT22;8556;52.218;9.884;2024-02-14T12:47:18;10.60;99.90
16879;DHT22;8556;52.218;9.884;2024-02-14T12:49:47;10.70;99.90
16879;DHT22;8556;52.218;9.884;2024-02-14T12:52:14;10.70;99.90
16879;DHT22;8556;52.218;9.884;2024-02-14T12:54:41;10.80;99.90
16879;DHT22;8556;52.218;9.884;2024-02-14T12:57:07;10.70;99.90
16879;DHT22;8556;52.218;9.884;2024-02-14T12:59:36;10.70;99.90
16879;DHT22;8556;52.218;9.884;2024-02-14T13:02:02;10.60;99.90
16879;DHT22;8556;52.218;9.884;2024-02-14T13:04:32;10.70;99.90
16879;DHT22;8556;52.218;9.884;2024-02-14T13:06:59;10.70;99.90
16879;DHT22;8556;52.218;9.884;2024-02-14T13:09:26;10.70;99.90
16879;DHT22;8556;52.218;9.884;2024-02-14T13:11:53;10.80;99.90
16879;DHT22;8556;52.218;9.884;2024-02-14T13:14:20;10.80;99.90
16879;DHT22;8556;52.218;9.884;2024-02-14T13:16:49;10.80;99.90
16879;DHT22;8556;52.218;9.884;2024-02-14T13:19:16;10.70;99.90
16879;DHT22;8556;52.218;9.884;2024-02-14T13:21:43;10.70;99.90
16879;DHT22;8556;52.218;9.884;2024-02-14T13:24:11;10.70;99.90
16879;DHT22;8556;52.218;9.884;2024-02-14T13:26:39;10.70;99.90
16879;DHT22;8556;52.218;9.884;2024-02-14T13:29:06;10.70;99.90
16879;DHT22;8556;52.218;9.884;2024-02-14T13:31:33;10.60;99.90
16879;DHT22;8556;52.218;9.884;2024-02-14T13:34:01;10.50;99.90
16879;DHT22;8556;52.218;9.884;2024-02-14T13:36:29;10.40;99.90
16879;DHT22;8556;52.218;9.884;2024-02-14T13:38:57;10.40;99.90
16879;DHT22;8556;52.218;9.884;2024-02-14T13:41:24;10.40;99.90
16879;DHT22;8556;52.218;9.884;2024-02-14T13:43:51;10.50;99.90
16879;DHT22;8556;52.218;9.884;2024-02-14T13:46:17;10.60;99.90
16879;DHT22;8556;52.218;9.884;2024-02-14T13:48:45;10.60;99.90
16879;DHT22;8556;52.218;9.884;2024-02-14T13:51:13;10.60;99.90
16879;DHT22;8556;52.218;9.884;2024-02-14T13:53:40;10.60;99.90
16879;DHT22;8556;52.218;9.884;2024-02-14T13:56:06;10.60;99.90
16879;DHT22;8556;52.218;9.884;2024-02-14T13:58:33;10.60;99.90
16879;DHT22;8556;52.218;9.884;2024-02-14T14:01:00;10.60;99.90
16879;DHT22;8556;52.218;9.884;2024-02-14T14:03:27;10.60;99.90
16879;DHT22;8556;52.218;9.884;2024-02-14T14:05:55;10.60;99.90
16879;DHT22;8556;52.218;9.884;2024-02-14T14:08:23;10.50;99.90
16879;DHT22;8556;52.218;9.884;2024-02-14T14:10:50;10.50;99.90
16879;DHT22;8556;52.218;9.884;2024-02-14T14:13:17;10.40;99.90
16879;DHT22;8556;52.218;9.884;2024-02-14T14:15:43;10.40;99.90
16879;DHT22;8556;52.218;9.884;2024-02-14T14:18:10;10.40;99.90
16879;DHT22;8556;52.218;9.884;2024-02-14T14:20:37;10.50;99.90
16879;DHT22;8556;52.218;9.884;2024-02-14T14:23:04;10.40;99.90
16879;DHT22;8556;52.218;9.884;2024-02-14T14:25:33;10.60;99.90
16879;DHT22;8556;52.218;9.884;2024-02-14T14:28:00;10.70;99.90
16879;DHT22;8556;52.218;9.884;2024-02-14T14:30:27;10.40;99.90
16879;DHT22;8556;52.218;9.884;2024-02-14T14:32:54;10.40;99.90
16879;DHT22;8556;52.218;9.884;2024-02-14T14:35:21;10.30;99.90
16879;DHT22;8556;52.218;9.884;2024-02-14T14:37:48;10.30;99.90
16879;DHT22;8556;52.218;9.884;2024-02-14T14:40:15;10.60;99.90
16879;DHT22;8556;52.218;9.884;2024-02-14T14:42:43;10.30;99.90
16879;DHT22;8556;52.218;9.884;2024-02-14T14:45:10;10.30;99.90
16879;DHT22;8556;52.218;9.884;2024-02-14T14:47:37;10.30;99.90
16879;DHT22;8556;52.218;9.884;2024-02-14T14:50:04;10.30;99.90
16879;DHT22;8556;52.218;9.884;2024-02-14T14:52:32;10.30;99.90
16879;DHT22;8556;52.218;9.884;2024-02-14T14:54:59;10.30;99.90
16879;DHT22;8556;52.218;9.884;2024-02-14T14:57:26;10.20;99.90
16879;DHT22;8556;52.218;9.884;2024-02-14T14:59:54;10.20;99.90
16879;DHT22;8556;52.218;9.884;2024-02-14T15:02:21;10.20;99.90
16879;DHT22;8556;52.218;9.884;2024-02-14T15:04:48;10.10;99.90
16879;DHT22;8556;52.218;9.884;2024-02-14T15:07:16;10.10;99.90
16879;DHT22;8556;52.218;9.884;2024-02-14T15:09:45;10.00;99.90
16879;DHT22;8556;52.218;9.884;2024-02-14T15:12:12;10.00;99.90
16879;DHT22;8556;52.218;9.884;2024-02-14T15:14:39;10.00;99.90
16879;DHT22;8556;52.218;9.884;2024-02-14T15:17:09;10.00;99.90
16879;DHT22;8556;52.218;9.884;2024-02-14T15:19:36;10.00;99.90
16879;DHT22;8556;52.218;9.884;2024-02-14T15:22:03;10.00;99.90
16879;DHT22;8556;52.218;9.884;2024-02-14T15:24:30;10.00;99.90
16879;DHT22;8556;52.218;9.884;2024-02-14T15:26:58;9.90;99.90
16879;DHT22;8556;52.218;9.884;2024-02-14T15:29:27;10.00;99.90
16879;DHT22;8556;52.218;9.884;2024-02-14T15:32:13;10.00;99.90
16879;DHT22;8556;52.218;9.884;2024-02-14T15:34:57;10.00;99.90
16879;DHT22;8556;52.218;9.884;2024-02-14T15:37:24;10.00;99.90
16879;DHT22;8556;52.218;9.884;2024-02-14T15:39:51;10.10;99.90
16879;DHT22;8556;52.218;9.884;2024-02-14T15:42:18;10.10;99.90
16879;DHT22;8556;52.218;9.884;2024-02-14T15:44:45;10.00;99.90
16879;DHT22;8556;52.218;9.884;2024-02-14T15:47:13;10.10;99.90
16879;DHT22;8556;52.218;9.884;2024-02-14T15:49:40;10.00;99.90
16879;DHT22;8556;52.218;9.884;2024-02-14T15:52:07;10.10;99.90
16879;DHT22;8556;52.218;9.884;2024-02-14T15:54:34;10.10;99.90
16879;DHT22;8556;52.218;9.884;2024-02-14T15:57:02;10.10;99.90
16879;DHT22;8556;52.218;9.884;2024-02-14T15:59:29;10.10;99.90
16879;DHT22;8556;52.218;9.884;2024-02-14T16:01:56;10.20;99.90